sensor_id;sensor_type;location;lat;lon;timestamp;P1;durP1;ratioP1;P2;durP2;ratioP2
8341;SDS011;4208;49.406;10.788;2022-09-03T00:00:14;8.88;;;5.55;;
8341;SDS011;4208;49.406;10.788;2022-09-03T00:02:45;10.15;;;6.05;;
8341;SDS011;4208;49.406;10.788;2022-09-03T00:05:20;8.82;;;5.38;;
8341;SDS011;4208;49.406;10.788;2022-09-03T00:07:55;6.80;;;4.88;;
8341;SDS011;4208;49.406;10.788;2022-09-03T00:10:33;6.20;;;4.53;;
8341;SDS011;4208;49.406;10.788;2022-09-03T00:13:13;6.32;;;4.40;;
8341;SDS011;4208;49.406;10.788;2022-09-03T00:15:44;6.80;;;4.55;;
8341;SDS011;4208;49.406;10.788;2022-09-03T00:18:14;5.68;;;3.83;;
8341;SDS011;4208;49.406;10.788;2022-09-03T00:20:48;7.15;;;4.47;;
8341;SDS011;4208;49.406;10.788;2022-09-03T00:23:23;5.93;;;4.25;;
8341;SDS011;4208;49.406;10.788;2022-09-03T00:25:57;4.93;;;3.53;;
8341;SDS011;4208;49.406;10.788;2022-09-03T00:28:33;4.55;;;2.90;;
8341;SDS011;4208;49.406;10.788;2022-09-03T00:31:06;3.85;;;2.63;;
8341;SDS011;4208;49.406;10.788;2022-09-03T00:33:44;3.40;;;2.67;;
8341;SDS011;4208;49.406;10.788;2022-09-03T00:36:15;6.80;;;3.28;;
8341;SDS011;4208;49.406;10.788;2022-09-03T00:38:47;4.35;;;3.28;;
8341;SDS011;4208;49.406;10.788;2022-09-03T00:41:21;3.63;;;3.28;;
8341;SDS011;4208;49.406;10.788;2022-09-03T00:44:07;5.28;;;3.70;;
8341;SDS011;4208;49.406;10.788;2022-09-03T00:47:03;2.78;;;2.28;;
8341;SDS011;4208;49.406;10.788;2022-09-03T00:49:42;5.70;;;2.55;;
8341;SDS011;4208;49.406;10.788;2022-09-03T00:52:22;4.40;;;2.38;;
8341;SDS011;4208;49.406;10.788;2022-09-03T00:55:04;4.35;;;2.58;;
8341;SDS011;4208;49.406;10.788;2022-09-03T00:57:44;3.15;;;2.50;;
8341;SDS011;4208;49.406;10.788;2022-09-03T01:00:19;3.58;;;3.15;;
8341;SDS011;4208;49.406;10.788;2022-09-03T01:02:51;4.65;;;3.03;;
8341;SDS011;4208;49.406;10.788;2022-09-03T01:05:32;4.63;;;2.90;;
8341;SDS011;4208;49.406;10.788;2022-09-03T01:08:13;5.00;;;2.50;;
8341;SDS011;4208;49.406;10.788;2022-09-03T01:11:08;3.58;;;2.92;;
8341;SDS011;4208;49.406;10.788;2022-09-03T01:13:49;5.07;;;3.00;;
8341;SDS011;4208;49.406;10.788;2022-09-03T01:16:25;4.05;;;2.63;;
8341;SDS011;4208;49.406;10.788;2022-09-03T01:18:59;4.32;;;2.65;;
8341;SDS011;4208;49.406;10.788;2022-09-03T01:21:42;7.72;;;3.13;;
8341;SDS011;4208;49.406;10.788;2022-09-03T01:24:44;3.17;;;2.42;;
8341;SDS011;4208;49.406;10.788;2022-09-03T01:27:32;6.32;;;3.20;;
8341;SDS011;4208;49.406;10.788;2022-09-03T01:30:11;3.35;;;2.50;;
8341;SDS011;4208;49.406;10.788;2022-09-03T01:32:45;4.88;;;2.40;;
8341;SDS011;4208;49.406;10.788;2022-09-03T01:35:22;2.90;;;2.38;;
8341;SDS011;4208;49.406;10.788;2022-09-03T01:38:00;2.45;;;2.22;;
8341;SDS011;4208;49.406;10.788;2022-09-03T01:40:37;4.53;;;2.30;;
8341;SDS011;4208;49.406;10.788;2022-09-03T01:43:20;3.30;;;2.30;;
8341;SDS011;4208;49.406;10.788;2022-09-03T01:46:06;3.47;;;2.73;;
8341;SDS011;4208;49.406;10.788;2022-09-03T01:48:43;2.87;;;2.50;;
8341;SDS011;4208;49.406;10.788;2022-09-03T01:51:17;5.37;;;2.30;;
8341;SDS011;4208;49.406;10.788;2022-09-03T01:53:55;4.60;;;2.50;;
8341;SDS011;4208;49.406;10.788;2022-09-03T01:57:00;3.23;;;2.87;;
8341;SDS011;4208;49.406;10.788;2022-09-03T02:00:08;4.67;;;2.57;;
8341;SDS011;4208;49.406;10.788;2022-09-03T02:02:41;3.87;;;2.53;;
8341;SDS011;4208;49.406;10.788;2022-09-03T02:05:14;3.00;;;2.73;;
8341;SDS011;4208;49.406;10.788;2022-09-03T02:07:49;6.33;;;3.27;;
8341;SDS011;4208;49.406;10.788;2022-09-03T02:10:24;4.63;;;3.08;;
8341;SDS011;4208;49.406;10.788;2022-09-03T02:12:58;3.80;;;2.63;;
8341;SDS011;4208;49.406;10.788;2022-09-03T02:15:28;4.05;;;3.00;;
8341;SDS011;4208;49.406;10.788;2022-09-03T02:18:05;5.60;;;2.83;;
8341;SDS011;4208;49.406;10.788;2022-09-03T02:20:37;3.65;;;2.80;;
8341;SDS011;4208;49.406;10.788;2022-09-03T02:23:07;4.60;;;3.17;;
8341;SDS011;4208;49.406;10.788;2022-09-03T02:25:37;4.53;;;3.60;;
8341;SDS011;4208;49.406;10.788;2022-09-03T02:28:08;5.93;;;3.60;;
8341;SDS011;4208;49.406;10.788;2022-09-03T02:30:43;4.53;;;3.20;;
8341;SDS011;4208;49.406;10.788;2022-09-03T02:33:15;4.00;;;2.90;;
8341;SDS011;4208;49.406;10.788;2022-09-03T02:35:44;4.83;;;3.20;;
8341;SDS011;4208;49.406;10.788;2022-09-03T02:38:14;6.20;;;3.13;;
8341;SDS011;4208;49.406;10.788;2022-09-03T02:40:45;3.17;;;2.87;;
8341;SDS011;4208;49.406;10.788;2022-09-03T02:43:14;3.63;;;3.07;;
8341;SDS011;4208;49.406;10.788;2022-09-03T02:45:53;3.80;;;3.00;;
8341;SDS011;4208;49.406;10.788;2022-09-03T02:48:27;7.57;;;3.53;;
8341;SDS011;4208;49.406;10.788;2022-09-03T02:50:56;3.90;;;3.30;;
8341;SDS011;4208;49.406;10.788;2022-09-03T02:53:25;4.67;;;3.47;;
8341;SDS011;4208;49.406;10.788;2022-09-03T02:55:56;6.03;;;3.57;;
8341;SDS011;4208;49.406;10.788;2022-09-03T02:58:27;5.57;;;3.17;;
8341;SDS011;4208;49.406;10.788;2022-09-03T03:00:57;5.33;;;3.70;;
8341;SDS011;4208;49.406;10.788;2022-09-03T03:03:27;6.77;;;5.00;;
8341;SDS011;4208;49.406;10.788;2022-09-03T03:05:57;5.77;;;4.10;;
8341;SDS011;4208;49.406;10.788;2022-09-03T03:08:28;7.03;;;4.50;;
8341;SDS011;4208;49.406;10.788;2022-09-03T03:10:58;5.47;;;3.83;;
8341;SDS011;4208;49.406;10.788;2022-09-03T03:13:28;5.87;;;3.67;;
8341;SDS011;4208;49.406;10.788;2022-09-03T03:15:58;5.20;;;3.03;;
8341;SDS011;4208;49.406;10.788;2022-09-03T03:18:29;3.70;;;3.07;;
8341;SDS011;4208;49.406;10.788;2022-09-03T03:21:02;3.27;;;2.43;;
8341;SDS011;4208;49.406;10.788;2022-09-03T03:23:32;4.67;;;3.20;;
8341;SDS011;4208;49.406;10.788;2022-09-03T03:26:01;3.97;;;2.77;;
8341;SDS011;4208;49.406;10.788;2022-09-03T03:28:31;3.63;;;2.77;;
8341;SDS011;4208;49.406;10.788;2022-09-03T03:31:04;2.70;;;2.50;;
8341;SDS011;4208;49.406;10.788;2022-09-03T03:33:35;4.20;;;2.93;;
8341;SDS011;4208;49.406;10.788;2022-09-03T03:36:05;3.20;;;2.77;;
8341;SDS011;4208;49.406;10.788;2022-09-03T03:38:34;5.23;;;2.93;;
8341;SDS011;4208;49.406;10.788;2022-09-03T03:41:07;3.27;;;2.97;;
8341;SDS011;4208;49.406;10.788;2022-09-03T03:43:37;4.00;;;2.73;;
8341;SDS011;4208;49.406;10.788;2022-09-03T03:46:06;3.67;;;2.70;;
8341;SDS011;4208;49.406;10.788;2022-09-03T03:48:37;2.97;;;2.67;;
8341;SDS011;4208;49.406;10.788;2022-09-03T03:51:07;4.13;;;2.77;;
8341;SDS011;4208;49.406;10.788;2022-09-03T03:53:37;4.53;;;2.73;;
8341;SDS011;4208;49.406;10.788;2022-09-03T03:56:07;3.90;;;2.63;;
8341;SDS011;4208;49.406;10.788;2022-09-03T03:58:37;3.80;;;2.90;;
8341;SDS011;4208;49.406;10.788;2022-09-03T04:01:09;3.80;;;2.83;;
8341;SDS011;4208;49.406;10.788;2022-09-03T04:03:40;3.00;;;2.50;;
8341;SDS011;4208;49.406;10.788;2022-09-03T04:06:11;4.07;;;2.70;;
8341;SDS011;4208;49.406;10.788;2022-09-03T04:08:42;3.00;;;2.70;;
8341;SDS011;4208;49.406;10.788;2022-09-03T04:11:13;3.60;;;2.53;;
8341;SDS011;4208;49.406;10.788;2022-09-03T04:13:44;2.70;;;2.50;;
8341;SDS011;4208;49.406;10.788;2022-09-03T04:16:14;4.10;;;2.30;;
8341;SDS011;4208;49.406;10.788;2022-09-03T04:18:45;2.87;;;2.57;;
8341;SDS011;4208;49.406;10.788;2022-09-03T04:21:16;2.80;;;2.27;;
8341;SDS011;4208;49.406;10.788;2022-09-03T04:23:47;3.23;;;2.27;;
8341;SDS011;4208;49.406;10.788;2022-09-03T04:26:17;4.07;;;2.40;;
8341;SDS011;4208;49.406;10.788;2022-09-03T04:28:48;5.60;;;2.60;;
8341;SDS011;4208;49.406;10.788;2022-09-03T04:31:17;3.80;;;2.57;;
8341;SDS011;4208;49.406;10.788;2022-09-03T04:33:49;2.43;;;2.23;;
8341;SDS011;4208;49.406;10.788;2022-09-03T04:36:19;3.10;;;2.37;;
8341;SDS011;4208;49.406;10.788;2022-09-03T04:38:50;2.90;;;2.47;;
8341;SDS011;4208;49.406;10.788;2022-09-03T04:41:20;3.03;;;2.60;;
8341;SDS011;4208;49.406;10.788;2022-09-03T04:43:52;4.10;;;2.70;;
8341;SDS011;4208;49.406;10.788;2022-09-03T04:46:22;3.07;;;2.50;;
8341;SDS011;4208;49.406;10.788;2022-09-03T04:48:54;2.70;;;2.47;;
8341;SDS011;4208;49.406;10.788;2022-09-03T04:51:24;40.40;;;28.10;;
8341;SDS011;4208;49.406;10.788;2022-09-03T04:53:54;26.90;;;19.00;;
8341;SDS011;4208;49.406;10.788;2022-09-03T04:56:25;4.47;;;4.07;;
8341;SDS011;4208;49.406;10.788;2022-09-03T04:58:55;9.50;;;8.50;;
8341;SDS011;4208;49.406;10.788;2022-09-03T05:01:28;6.17;;;5.27;;
8341;SDS011;4208;49.406;10.788;2022-09-03T05:03:59;4.07;;;3.20;;
8341;SDS011;4208;49.406;10.788;2022-09-03T05:06:29;4.43;;;2.93;;
8341;SDS011;4208;49.406;10.788;2022-09-03T05:08:58;4.53;;;3.00;;
8341;SDS011;4208;49.406;10.788;2022-09-03T05:11:28;4.20;;;2.33;;
8341;SDS011;4208;49.406;10.788;2022-09-03T05:13:57;3.40;;;2.83;;
8341;SDS011;4208;49.406;10.788;2022-09-03T05:16:27;6.10;;;2.77;;
8341;SDS011;4208;49.406;10.788;2022-09-03T05:18:57;4.60;;;2.70;;
8341;SDS011;4208;49.406;10.788;2022-09-03T05:21:32;3.33;;;2.47;;
8341;SDS011;4208;49.406;10.788;2022-09-03T05:24:02;4.00;;;2.87;;
8341;SDS011;4208;49.406;10.788;2022-09-03T05:26:34;3.40;;;2.90;;
8341;SDS011;4208;49.406;10.788;2022-09-03T05:29:05;5.13;;;3.50;;
8341;SDS011;4208;49.406;10.788;2022-09-03T05:31:35;5.47;;;3.73;;
8341;SDS011;4208;49.406;10.788;2022-09-03T05:34:07;7.13;;;5.40;;
8341;SDS011;4208;49.406;10.788;2022-09-03T05:36:42;7.80;;;6.23;;
8341;SDS011;4208;49.406;10.788;2022-09-03T05:39:15;8.10;;;4.90;;
8341;SDS011;4208;49.406;10.788;2022-09-03T05:41:43;9.83;;;6.60;;
8341;SDS011;4208;49.406;10.788;2022-09-03T05:44:12;16.10;;;11.80;;
8341;SDS011;4208;49.406;10.788;2022-09-03T05:46:41;8.00;;;5.63;;
8341;SDS011;4208;49.406;10.788;2022-09-03T05:49:11;13.30;;;9.47;;
8341;SDS011;4208;49.406;10.788;2022-09-03T05:51:40;13.07;;;9.63;;
8341;SDS011;4208;49.406;10.788;2022-09-03T05:54:09;15.13;;;9.87;;
8341;SDS011;4208;49.406;10.788;2022-09-03T05:56:38;14.13;;;8.30;;
8341;SDS011;4208;49.406;10.788;2022-09-03T05:59:08;6.37;;;5.50;;
8341;SDS011;4208;49.406;10.788;2022-09-03T06:01:40;9.60;;;5.87;;
8341;SDS011;4208;49.406;10.788;2022-09-03T06:04:18;8.10;;;4.30;;
8341;SDS011;4208;49.406;10.788;2022-09-03T06:06:47;5.53;;;4.93;;
8341;SDS011;4208;49.406;10.788;2022-09-03T06:09:17;6.27;;;4.57;;
8341;SDS011;4208;49.406;10.788;2022-09-03T06:11:49;4.13;;;3.73;;
8341;SDS011;4208;49.406;10.788;2022-09-03T06:14:19;4.53;;;3.50;;
8341;SDS011;4208;49.406;10.788;2022-09-03T06:16:49;5.17;;;3.50;;
8341;SDS011;4208;49.406;10.788;2022-09-03T06:19:20;5.97;;;3.53;;
8341;SDS011;4208;49.406;10.788;2022-09-03T06:21:49;6.27;;;3.90;;
8341;SDS011;4208;49.406;10.788;2022-09-03T06:24:18;3.73;;;3.07;;
8341;SDS011;4208;49.406;10.788;2022-09-03T06:26:52;3.27;;;2.87;;
8341;SDS011;4208;49.406;10.788;2022-09-03T06:29:21;3.85;;;2.78;;
8341;SDS011;4208;49.406;10.788;2022-09-03T06:31:50;4.15;;;2.55;;
8341;SDS011;4208;49.406;10.788;2022-09-03T06:34:18;3.13;;;2.63;;
8341;SDS011;4208;49.406;10.788;2022-09-03T06:36:51;3.55;;;2.70;;
8341;SDS011;4208;49.406;10.788;2022-09-03T06:39:20;3.75;;;2.50;;
8341;SDS011;4208;49.406;10.788;2022-09-03T06:41:50;4.60;;;2.20;;
8341;SDS011;4208;49.406;10.788;2022-09-03T06:44:26;2.65;;;2.25;;
8341;SDS011;4208;49.406;10.788;2022-09-03T06:46:54;3.97;;;2.15;;
8341;SDS011;4208;49.406;10.788;2022-09-03T06:49:28;4.18;;;2.20;;
8341;SDS011;4208;49.406;10.788;2022-09-03T06:51:57;5.40;;;2.47;;
8341;SDS011;4208;49.406;10.788;2022-09-03T06:54:26;4.05;;;2.30;;
8341;SDS011;4208;49.406;10.788;2022-09-03T06:56:55;4.22;;;2.33;;
8341;SDS011;4208;49.406;10.788;2022-09-03T06:59:25;2.20;;;2.00;;
8341;SDS011;4208;49.406;10.788;2022-09-03T07:01:54;3.03;;;2.10;;
8341;SDS011;4208;49.406;10.788;2022-09-03T07:04:24;3.13;;;2.10;;
8341;SDS011;4208;49.406;10.788;2022-09-03T07:06:56;3.00;;;2.30;;
8341;SDS011;4208;49.406;10.788;2022-09-03T07:09:25;3.00;;;1.80;;
8341;SDS011;4208;49.406;10.788;2022-09-03T07:11:54;5.13;;;2.33;;
8341;SDS011;4208;49.406;10.788;2022-09-03T07:14:22;3.03;;;2.00;;
8341;SDS011;4208;49.406;10.788;2022-09-03T07:16:53;2.72;;;2.10;;
8341;SDS011;4208;49.406;10.788;2022-09-03T07:19:21;4.25;;;2.72;;
8341;SDS011;4208;49.406;10.788;2022-09-03T07:21:50;3.67;;;1.70;;
8341;SDS011;4208;49.406;10.788;2022-09-03T07:24:20;1.70;;;1.60;;
8341;SDS011;4208;49.406;10.788;2022-09-03T07:26:49;3.47;;;1.70;;
8341;SDS011;4208;49.406;10.788;2022-09-03T07:29:18;2.53;;;1.77;;
8341;SDS011;4208;49.406;10.788;2022-09-03T07:31:48;2.47;;;1.60;;
8341;SDS011;4208;49.406;10.788;2022-09-03T07:34:19;4.60;;;1.50;;
8341;SDS011;4208;49.406;10.788;2022-09-03T07:36:52;3.60;;;1.77;;
8341;SDS011;4208;49.406;10.788;2022-09-03T07:39:22;4.05;;;1.50;;
8341;SDS011;4208;49.406;10.788;2022-09-03T07:41:51;3.80;;;1.65;;
8341;SDS011;4208;49.406;10.788;2022-09-03T07:44:20;2.97;;;2.00;;
8341;SDS011;4208;49.406;10.788;2022-09-03T07:46:50;3.60;;;1.90;;
8341;SDS011;4208;49.406;10.788;2022-09-03T07:49:19;4.15;;;1.70;;
8341;SDS011;4208;49.406;10.788;2022-09-03T07:51:49;4.00;;;1.80;;
8341;SDS011;4208;49.406;10.788;2022-09-03T07:54:19;3.38;;;1.48;;
8341;SDS011;4208;49.406;10.788;2022-09-03T07:56:51;1.90;;;1.60;;
8341;SDS011;4208;49.406;10.788;2022-09-03T07:59:22;5.25;;;1.60;;
8341;SDS011;4208;49.406;10.788;2022-09-03T08:01:51;4.78;;;1.70;;
8341;SDS011;4208;49.406;10.788;2022-09-03T08:04:20;2.63;;;1.65;;
8341;SDS011;4208;49.406;10.788;2022-09-03T08:06:49;3.17;;;1.40;;
8341;SDS011;4208;49.406;10.788;2022-09-03T08:09:21;2.35;;;1.50;;
8341;SDS011;4208;49.406;10.788;2022-09-03T08:11:52;2.13;;;1.50;;
8341;SDS011;4208;49.406;10.788;2022-09-03T08:14:21;2.35;;;1.45;;
8341;SDS011;4208;49.406;10.788;2022-09-03T08:16:49;4.22;;;1.58;;
8341;SDS011;4208;49.406;10.788;2022-09-03T08:19:18;4.35;;;1.70;;
8341;SDS011;4208;49.406;10.788;2022-09-03T08:21:48;2.53;;;1.33;;
8341;SDS011;4208;49.406;10.788;2022-09-03T08:24:17;2.90;;;1.80;;
8341;SDS011;4208;49.406;10.788;2022-09-03T08:26:47;1.73;;;1.38;;
8341;SDS011;4208;49.406;10.788;2022-09-03T08:29:20;4.57;;;1.70;;
8341;SDS011;4208;49.406;10.788;2022-09-03T08:31:48;3.72;;;1.45;;
8341;SDS011;4208;49.406;10.788;2022-09-03T08:34:18;2.83;;;1.30;;
8341;SDS011;4208;49.406;10.788;2022-09-03T08:36:47;1.83;;;1.35;;
8341;SDS011;4208;49.406;10.788;2022-09-03T08:39:16;3.85;;;1.50;;
8341;SDS011;4208;49.406;10.788;2022-09-03T08:41:56;3.17;;;1.80;;
8341;SDS011;4208;49.406;10.788;2022-09-03T08:44:49;2.65;;;1.73;;
8341;SDS011;4208;49.406;10.788;2022-09-03T08:47:23;2.67;;;1.40;;
8341;SDS011;4208;49.406;10.788;2022-09-03T08:49:57;4.35;;;1.70;;
8341;SDS011;4208;49.406;10.788;2022-09-03T08:52:31;2.08;;;1.40;;
8341;SDS011;4208;49.406;10.788;2022-09-03T08:55:10;1.30;;;1.20;;
8341;SDS011;4208;49.406;10.788;2022-09-03T08:57:45;2.85;;;1.30;;
8341;SDS011;4208;49.406;10.788;2022-09-03T09:00:18;4.20;;;1.40;;
8341;SDS011;4208;49.406;10.788;2022-09-03T09:03:06;4.78;;;1.60;;
8341;SDS011;4208;49.406;10.788;2022-09-03T09:05:59;4.10;;;1.70;;
8341;SDS011;4208;49.406;10.788;2022-09-03T09:08:37;3.95;;;1.60;;
8341;SDS011;4208;49.406;10.788;2022-09-03T09:11:16;4.93;;;2.13;;
8341;SDS011;4208;49.406;10.788;2022-09-03T09:13:55;3.50;;;1.70;;
8341;SDS011;4208;49.406;10.788;2022-09-03T09:16:34;2.97;;;1.85;;
8341;SDS011;4208;49.406;10.788;2022-09-03T09:19:11;2.17;;;1.42;;
8341;SDS011;4208;49.406;10.788;2022-09-03T09:21:51;3.35;;;1.70;;
8341;SDS011;4208;49.406;10.788;2022-09-03T09:24:24;4.85;;;1.40;;
8341;SDS011;4208;49.406;10.788;2022-09-03T09:26:57;3.50;;;1.83;;
8341;SDS011;4208;49.406;10.788;2022-09-03T09:29:30;3.42;;;1.40;;
8341;SDS011;4208;49.406;10.788;2022-09-03T09:32:02;5.35;;;1.75;;
8341;SDS011;4208;49.406;10.788;2022-09-03T09:34:34;4.30;;;1.70;;
8341;SDS011;4208;49.406;10.788;2022-09-03T09:37:05;3.17;;;1.30;;
8341;SDS011;4208;49.406;10.788;2022-09-03T09:39:39;3.60;;;1.77;;
8341;SDS011;4208;49.406;10.788;2022-09-03T09:42:09;1.48;;;1.30;;
8341;SDS011;4208;49.406;10.788;2022-09-03T09:44:40;2.70;;;1.30;;
8341;SDS011;4208;49.406;10.788;2022-09-03T09:47:12;1.77;;;1.45;;
8341;SDS011;4208;49.406;10.788;2022-09-03T09:49:53;3.33;;;2.00;;
8341;SDS011;4208;49.406;10.788;2022-09-03T09:52:23;4.22;;;1.50;;
8341;SDS011;4208;49.406;10.788;2022-09-03T09:55:04;2.97;;;1.50;;
8341;SDS011;4208;49.406;10.788;2022-09-03T09:57:35;2.78;;;1.40;;
8341;SDS011;4208;49.406;10.788;2022-09-03T10:00:06;2.55;;;1.50;;
8341;SDS011;4208;49.406;10.788;2022-09-03T10:02:40;4.00;;;1.70;;
8341;SDS011;4208;49.406;10.788;2022-09-03T10:05:19;1.70;;;1.23;;
8341;SDS011;4208;49.406;10.788;2022-09-03T10:07:55;5.72;;;1.88;;
8341;SDS011;4208;49.406;10.788;2022-09-03T10:10:26;2.28;;;1.50;;
8341;SDS011;4208;49.406;10.788;2022-09-03T10:13:04;2.45;;;1.60;;
8341;SDS011;4208;49.406;10.788;2022-09-03T10:15:39;2.17;;;1.60;;
8341;SDS011;4208;49.406;10.788;2022-09-03T10:18:15;3.55;;;1.50;;
8341;SDS011;4208;49.406;10.788;2022-09-03T10:20:56;4.03;;;1.55;;
8341;SDS011;4208;49.406;10.788;2022-09-03T10:23:32;2.25;;;1.50;;
8341;SDS011;4208;49.406;10.788;2022-09-03T10:26:10;2.80;;;1.50;;
8341;SDS011;4208;49.406;10.788;2022-09-03T10:28:41;2.20;;;1.73;;
8341;SDS011;4208;49.406;10.788;2022-09-03T10:31:19;4.30;;;1.60;;
8341;SDS011;4208;49.406;10.788;2022-09-03T10:34:05;2.55;;;1.70;;
8341;SDS011;4208;49.406;10.788;2022-09-03T10:36:42;3.88;;;1.90;;
8341;SDS011;4208;49.406;10.788;2022-09-03T10:39:20;3.58;;;1.70;;
8341;SDS011;4208;49.406;10.788;2022-09-03T10:41:57;3.28;;;1.70;;
8341;SDS011;4208;49.406;10.788;2022-09-03T10:47:31;4.03;;;1.90;;
8341;SDS011;4208;49.406;10.788;2022-09-03T10:50:14;3.10;;;1.75;;
8341;SDS011;4208;49.406;10.788;2022-09-03T10:52:54;4.18;;;1.60;;
8341;SDS011;4208;49.406;10.788;2022-09-03T10:55:37;4.13;;;2.00;;
8341;SDS011;4208;49.406;10.788;2022-09-03T10:58:33;1.70;;;1.60;;
8341;SDS011;4208;49.406;10.788;2022-09-03T11:01:13;3.67;;;1.65;;
8341;SDS011;4208;49.406;10.788;2022-09-03T11:03:48;4.25;;;1.90;;
8341;SDS011;4208;49.406;10.788;2022-09-03T11:06:27;4.53;;;1.60;;
8341;SDS011;4208;49.406;10.788;2022-09-03T11:08:57;2.38;;;1.77;;
8341;SDS011;4208;49.406;10.788;2022-09-03T11:11:33;3.13;;;1.77;;
8341;SDS011;4208;49.406;10.788;2022-09-03T11:14:06;4.30;;;1.70;;
8341;SDS011;4208;49.406;10.788;2022-09-03T11:16:37;2.58;;;1.60;;
8341;SDS011;4208;49.406;10.788;2022-09-03T11:19:12;2.20;;;1.70;;
8341;SDS011;4208;49.406;10.788;2022-09-03T11:21:46;3.05;;;1.90;;
8341;SDS011;4208;49.406;10.788;2022-09-03T11:24:18;3.42;;;2.00;;
8341;SDS011;4208;49.406;10.788;2022-09-03T11:26:49;2.88;;;1.77;;
8341;SDS011;4208;49.406;10.788;2022-09-03T11:29:28;4.43;;;2.03;;
8341;SDS011;4208;49.406;10.788;2022-09-03T11:32:03;3.05;;;2.10;;
8341;SDS011;4208;49.406;10.788;2022-09-03T11:34:44;4.85;;;2.05;;
8341;SDS011;4208;49.406;10.788;2022-09-03T11:37:17;4.43;;;1.90;;
8341;SDS011;4208;49.406;10.788;2022-09-03T11:39:55;5.03;;;1.90;;
8341;SDS011;4208;49.406;10.788;2022-09-03T11:42:27;2.30;;;1.73;;
8341;SDS011;4208;49.406;10.788;2022-09-03T11:44:59;4.60;;;2.17;;
8341;SDS011;4208;49.406;10.788;2022-09-03T11:47:41;4.10;;;2.33;;
8341;SDS011;4208;49.406;10.788;2022-09-03T11:50:15;3.22;;;1.88;;
8341;SDS011;4208;49.406;10.788;2022-09-03T11:52:50;3.10;;;2.22;;
8341;SDS011;4208;49.406;10.788;2022-09-03T11:55:23;2.27;;;2.00;;
8341;SDS011;4208;49.406;10.788;2022-09-03T11:58:09;3.65;;;2.10;;
8341;SDS011;4208;49.406;10.788;2022-09-03T12:00:39;6.22;;;2.30;;
8341;SDS011;4208;49.406;10.788;2022-09-03T12:03:11;4.00;;;1.90;;
8341;SDS011;4208;49.406;10.788;2022-09-03T12:05:47;4.50;;;2.65;;
8341;SDS011;4208;49.406;10.788;2022-09-03T12:08:42;4.03;;;2.50;;
8341;SDS011;4208;49.406;10.788;2022-09-03T12:11:25;2.33;;;2.03;;
8341;SDS011;4208;49.406;10.788;2022-09-03T12:14:05;3.58;;;2.40;;
8341;SDS011;4208;49.406;10.788;2022-09-03T12:16:46;2.83;;;2.20;;
8341;SDS011;4208;49.406;10.788;2022-09-03T12:19:26;4.15;;;2.30;;
8341;SDS011;4208;49.406;10.788;2022-09-03T12:22:03;3.10;;;2.22;;
8341;SDS011;4208;49.406;10.788;2022-09-03T12:24:33;3.85;;;2.15;;
8341;SDS011;4208;49.406;10.788;2022-09-03T12:27:04;3.40;;;2.40;;
8341;SDS011;4208;49.406;10.788;2022-09-03T12:29:35;3.88;;;2.22;;
8341;SDS011;4208;49.406;10.788;2022-09-03T12:32:07;2.97;;;2.60;;
8341;SDS011;4208;49.406;10.788;2022-09-03T12:34:38;5.45;;;3.72;;
8341;SDS011;4208;49.406;10.788;2022-09-03T12:37:15;3.05;;;2.33;;
8341;SDS011;4208;49.406;10.788;2022-09-03T12:40:16;4.65;;;2.58;;
8341;SDS011;4208;49.406;10.788;2022-09-03T12:42:47;2.95;;;2.50;;
8341;SDS011;4208;49.406;10.788;2022-09-03T12:45:18;4.45;;;2.33;;
8341;SDS011;4208;49.406;10.788;2022-09-03T12:47:49;4.25;;;2.72;;
8341;SDS011;4208;49.406;10.788;2022-09-03T12:50:19;3.35;;;2.50;;
8341;SDS011;4208;49.406;10.788;2022-09-03T12:52:50;5.55;;;2.50;;
8341;SDS011;4208;49.406;10.788;2022-09-03T12:55:27;3.13;;;2.65;;
8341;SDS011;4208;49.406;10.788;2022-09-03T12:58:03;4.75;;;3.17;;
8341;SDS011;4208;49.406;10.788;2022-09-03T13:00:40;4.63;;;2.75;;
8341;SDS011;4208;49.406;10.788;2022-09-03T13:03:14;4.43;;;2.88;;
8341;SDS011;4208;49.406;10.788;2022-09-03T13:05:47;2.80;;;2.55;;
8341;SDS011;4208;49.406;10.788;2022-09-03T13:08:20;3.42;;;3.13;;
8341;SDS011;4208;49.406;10.788;2022-09-03T13:10:54;2.83;;;2.55;;
8341;SDS011;4208;49.406;10.788;2022-09-03T13:13:25;4.95;;;2.45;;
8341;SDS011;4208;49.406;10.788;2022-09-03T13:15:59;3.15;;;2.85;;
8341;SDS011;4208;49.406;10.788;2022-09-03T13:18:42;5.57;;;2.92;;
8341;SDS011;4208;49.406;10.788;2022-09-03T13:21:17;4.18;;;2.83;;
8341;SDS011;4208;49.406;10.788;2022-09-03T13:24:00;2.95;;;2.40;;
8341;SDS011;4208;49.406;10.788;2022-09-03T13:26:41;3.47;;;2.95;;
8341;SDS011;4208;49.406;10.788;2022-09-03T13:29:21;3.90;;;2.70;;
8341;SDS011;4208;49.406;10.788;2022-09-03T13:32:06;5.32;;;2.83;;
8341;SDS011;4208;49.406;10.788;2022-09-03T13:34:51;3.63;;;2.55;;
8341;SDS011;4208;49.406;10.788;2022-09-03T13:37:25;5.38;;;2.60;;
8341;SDS011;4208;49.406;10.788;2022-09-03T13:39:57;2.97;;;2.53;;
8341;SDS011;4208;49.406;10.788;2022-09-03T13:42:32;3.85;;;3.22;;
8341;SDS011;4208;49.406;10.788;2022-09-03T13:45:12;3.95;;;3.30;;
8341;SDS011;4208;49.406;10.788;2022-09-03T13:47:51;4.97;;;3.10;;
8341;SDS011;4208;49.406;10.788;2022-09-03T13:50:43;5.10;;;2.90;;
8341;SDS011;4208;49.406;10.788;2022-09-03T13:53:17;4.00;;;3.00;;
8341;SDS011;4208;49.406;10.788;2022-09-03T13:55:53;5.07;;;3.08;;
8341;SDS011;4208;49.406;10.788;2022-09-03T13:58:32;3.22;;;2.90;;
8341;SDS011;4208;49.406;10.788;2022-09-03T14:01:10;4.32;;;2.80;;
8341;SDS011;4208;49.406;10.788;2022-09-03T14:03:47;4.85;;;2.80;;
8341;SDS011;4208;49.406;10.788;2022-09-03T14:06:23;4.60;;;2.78;;
8341;SDS011;4208;49.406;10.788;2022-09-03T14:09:05;3.50;;;2.80;;
8341;SDS011;4208;49.406;10.788;2022-09-03T14:11:46;5.28;;;3.00;;
8341;SDS011;4208;49.406;10.788;2022-09-03T14:14:30;3.15;;;2.40;;
8341;SDS011;4208;49.406;10.788;2022-09-03T14:17:09;3.20;;;2.85;;
8341;SDS011;4208;49.406;10.788;2022-09-03T14:19:44;3.78;;;2.85;;
8341;SDS011;4208;49.406;10.788;2022-09-03T14:22:20;3.78;;;2.60;;
8341;SDS011;4208;49.406;10.788;2022-09-03T14:24:52;6.35;;;2.90;;
8341;SDS011;4208;49.406;10.788;2022-09-03T14:27:27;4.32;;;3.00;;
8341;SDS011;4208;49.406;10.788;2022-09-03T14:29:59;5.50;;;3.03;;
8341;SDS011;4208;49.406;10.788;2022-09-03T14:32:30;4.32;;;3.00;;
8341;SDS011;4208;49.406;10.788;2022-09-03T14:35:14;3.47;;;2.97;;
8341;SDS011;4208;49.406;10.788;2022-09-03T14:38:07;4.68;;;2.92;;
8341;SDS011;4208;49.406;10.788;2022-09-03T14:40:55;3.33;;;2.83;;
8341;SDS011;4208;49.406;10.788;2022-09-03T14:43:45;4.90;;;2.90;;
8341;SDS011;4208;49.406;10.788;2022-09-03T14:46:36;3.50;;;2.47;;
8341;SDS011;4208;49.406;10.788;2022-09-03T14:49:19;3.08;;;2.78;;
8341;SDS011;4208;49.406;10.788;2022-09-03T14:52:06;5.10;;;2.75;;
8341;SDS011;4208;49.406;10.788;2022-09-03T14:54:49;5.05;;;2.80;;
8341;SDS011;4208;49.406;10.788;2022-09-03T15:00:25;4.30;;;2.70;;
8341;SDS011;4208;49.406;10.788;2022-09-03T15:03:05;5.32;;;2.90;;
8341;SDS011;4208;49.406;10.788;2022-09-03T15:06:01;3.78;;;2.90;;
8341;SDS011;4208;49.406;10.788;2022-09-03T15:08:43;3.42;;;2.72;;
8341;SDS011;4208;49.406;10.788;2022-09-03T15:11:23;4.95;;;3.00;;
8341;SDS011;4208;49.406;10.788;2022-09-03T15:13:59;3.40;;;2.90;;
8341;SDS011;4208;49.406;10.788;2022-09-03T15:16:42;3.80;;;3.10;;
8341;SDS011;4208;49.406;10.788;2022-09-03T15:19:26;5.15;;;3.08;;
8341;SDS011;4208;49.406;10.788;2022-09-03T15:22:18;3.45;;;3.00;;
8341;SDS011;4208;49.406;10.788;2022-09-03T15:25:02;3.95;;;2.70;;
8341;SDS011;4208;49.406;10.788;2022-09-03T15:27:42;4.60;;;2.50;;
8341;SDS011;4208;49.406;10.788;2022-09-03T15:30:33;2.95;;;2.20;;
8341;SDS011;4208;49.406;10.788;2022-09-03T15:33:13;3.70;;;1.58;;
8341;SDS011;4208;49.406;10.788;2022-09-03T15:35:59;1.63;;;1.50;;
8341;SDS011;4208;49.406;10.788;2022-09-03T15:38:46;1.90;;;1.50;;
8341;SDS011;4208;49.406;10.788;2022-09-03T15:41:27;3.00;;;1.63;;
8341;SDS011;4208;49.406;10.788;2022-09-03T15:44:02;2.90;;;1.58;;
8341;SDS011;4208;49.406;10.788;2022-09-03T15:46:48;1.70;;;1.38;;
8341;SDS011;4208;49.406;10.788;2022-09-03T15:49:25;3.53;;;1.60;;
8341;SDS011;4208;49.406;10.788;2022-09-03T15:52:05;6.15;;;4.20;;